createdAt,value
2022-08-19T00:02:00.387Z,22.72
2022-08-19T00:04:35.067Z,22.69
2022-08-19T00:07:02.951Z,22.67
2022-08-19T00:09:30.122Z,22.67
2022-08-19T00:11:58.800Z,22.64
2022-08-19T00:14:27.837Z,22.62
2022-08-19T00:16:55.585Z,22.60
2022-08-19T00:19:23.686Z,22.58
2022-08-19T00:21:50.901Z,22.57
2022-08-19T00:24:17.708Z,22.53
2022-08-19T00:26:46.192Z,22.48
2022-08-19T00:29:15.394Z,22.44
2022-08-19T00:31:45.791Z,22.42
2022-08-19T00:34:13.806Z,22.40
2022-08-19T00:36:42.138Z,22.35
2022-08-19T00:39:09.824Z,22.33
2022-08-19T00:41:36.943Z,22.32
2022-08-19T00:44:15.655Z,22.31
2022-08-19T00:46:55.656Z,22.29
2022-08-19T00:49:32.233Z,22.25
2022-08-19T00:52:07.828Z,22.25
2022-08-19T00:54:34.721Z,22.20
2022-08-19T00:57:04.531Z,22.16
2022-08-19T00:59:56.167Z,22.14
2022-08-19T01:02:18.675Z,22.14
2022-08-19T01:04:45.539Z,22.12
2022-08-19T01:07:16.679Z,22.10
2022-08-19T01:09:46.701Z,22.08
2022-08-19T01:12:13.759Z,22.01
2022-08-19T01:14:41.379Z,21.96
2022-08-19T01:17:11.415Z,21.92
2022-08-19T01:19:43.951Z,21.88
2022-08-19T01:22:33.822Z,21.86
2022-08-19T01:25:01.760Z,21.82
2022-08-19T01:27:40.669Z,21.79
2022-08-19T01:30:13.105Z,21.76
2022-08-19T01:32:39.817Z,21.72
2022-08-19T01:35:06.888Z,21.68
2022-08-19T01:37:50.514Z,21.63
2022-08-19T01:40:18.404Z,21.60
2022-08-19T01:42:45.202Z,21.59
2022-08-19T01:45:12.412Z,21.59
2022-08-19T01:47:39.606Z,21.60
2022-08-19T01:50:08.971Z,21.60
2022-08-19T01:52:36.666Z,21.59
2022-08-19T01:55:04.743Z,21.52
2022-08-19T01:57:31.443Z,21.47
2022-08-19T01:59:58.610Z,21.43
2022-08-19T02:02:26.125Z,21.37
2022-08-19T02:04:52.832Z,21.34
2022-08-19T02:07:22.803Z,21.32
2022-08-19T02:09:49.541Z,21.29
2022-08-19T02:12:17.435Z,21.24
2022-08-19T02:14:44.096Z,21.23
2022-08-19T02:17:10.766Z,21.21
2022-08-19T02:19:39.048Z,21.19
2022-08-19T02:22:08.612Z,21.20
2022-08-19T02:24:35.244Z,21.21
2022-08-19T02:27:01.925Z,21.19
2022-08-19T02:29:29.067Z,21.17
2022-08-19T02:31:55.726Z,21.14
2022-08-19T02:34:22.403Z,21.13
2022-08-19T02:36:51.824Z,21.16
2022-08-19T02:39:19.221Z,21.14
2022-08-19T02:41:47.067Z,21.16
2022-08-19T02:44:26.634Z,21.17
2022-08-19T02:46:59.141Z,21.15
2022-08-19T02:49:25.894Z,21.15
2022-08-19T02:51:52.561Z,21.15
2022-08-19T02:54:20.245Z,21.14
2022-08-19T02:56:47.882Z,21.14
2022-08-19T02:59:14.742Z,21.13
2022-08-19T03:01:43.091Z,21.12
2022-08-19T03:04:13.386Z,21.10
2022-08-19T03:06:43.403Z,21.01
2022-08-19T03:09:11.888Z,20.96
2022-08-19T03:11:38.971Z,20.94
2022-08-19T03:14:08.128Z,20.94
2022-08-19T03:16:41.456Z,20.92
2022-08-19T03:19:08.235Z,20.91
2022-08-19T03:21:38.100Z,20.91
2022-08-19T03:24:10.753Z,20.90
2022-08-19T03:26:46.422Z,20.83
2022-08-19T03:29:14.067Z,20.80
2022-08-19T03:31:52.424Z,20.78
2022-08-19T03:34:27.607Z,20.80
2022-08-19T03:37:00.069Z,20.82
2022-08-19T03:39:28.596Z,20.83
2022-08-19T03:42:29.286Z,20.83
2022-08-19T03:44:47.824Z,20.82
2022-08-19T03:47:17.294Z,20.82
2022-08-19T03:49:44.442Z,20.80
2022-08-19T03:52:11.336Z,20.83
2022-08-19T03:54:39.524Z,20.87
2022-08-19T03:57:06.796Z,20.86
2022-08-19T03:59:35.534Z,20.84
2022-08-19T04:02:09.726Z,20.85
2022-08-19T04:04:38.627Z,20.83
2022-08-19T04:07:05.827Z,20.81
2022-08-19T04:09:35.292Z,20.83
2022-08-19T04:12:01.875Z,20.83
2022-08-19T04:14:33.160Z,20.81
2022-08-19T04:17:01.130Z,20.80
2022-08-19T04:19:30.399Z,20.83
2022-08-19T04:21:58.372Z,20.89
2022-08-19T04:24:25.514Z,20.93
2022-08-19T04:26:52.731Z,20.95
2022-08-19T04:29:25.775Z,21.01
2022-08-19T04:31:54.616Z,21.11
2022-08-19T04:34:25.196Z,21.21
2022-08-19T04:36:54.014Z,21.32
2022-08-19T04:39:44.781Z,21.44
2022-08-19T04:42:30.857Z,21.55
2022-08-19T04:44:59.698Z,21.64
2022-08-19T04:47:49.132Z,21.73
2022-08-19T04:50:13.437Z,21.81
2022-08-19T04:52:43.896Z,21.79
2022-08-19T04:55:11.898Z,21.77
2022-08-19T04:57:42.156Z,21.77
2022-08-19T05:00:12.432Z,21.80
2022-08-19T05:02:39.424Z,21.85
2022-08-19T05:05:07.619Z,21.85
2022-08-19T05:07:35.583Z,21.86
2022-08-19T05:10:02.962Z,21.88
2022-08-19T05:12:29.978Z,21.88
2022-08-19T05:14:59.220Z,21.90
2022-08-19T05:17:29.000Z,21.91
2022-08-19T05:20:14.942Z,21.90
2022-08-19T05:22:43.043Z,21.90
2022-08-19T05:25:14.781Z,21.96
2022-08-19T05:27:43.065Z,22.04
2022-08-19T05:30:10.899Z,22.11
2022-08-19T05:32:37.836Z,22.16
2022-08-19T05:35:05.946Z,22.24
2022-08-19T05:37:32.870Z,22.31
2022-08-19T05:39:59.703Z,22.36
2022-08-19T05:42:28.758Z,22.39
2022-08-19T05:44:57.058Z,22.45
2022-08-19T05:47:24.167Z,22.49
2022-08-19T05:49:51.780Z,22.55
2022-08-19T05:52:26.074Z,22.62
2022-08-19T05:54:56.166Z,22.70
2022-08-19T05:57:24.342Z,22.76
2022-08-19T05:59:57.899Z,22.85
2022-08-19T06:02:29.749Z,22.92
2022-08-19T06:04:56.471Z,23.05
2022-08-19T06:07:23.516Z,23.16
2022-08-19T06:09:58.995Z,23.27
2022-08-19T06:12:32.644Z,23.34
2022-08-19T06:15:02.121Z,23.37
2022-08-19T06:17:31.720Z,23.40
2022-08-19T06:19:59.809Z,23.44
2022-08-19T06:22:27.163Z,23.46
2022-08-19T06:24:55.037Z,23.52
2022-08-19T06:27:23.054Z,23.59
2022-08-19T06:29:50.166Z,23.69
2022-08-19T06:32:19.220Z,23.76
2022-08-19T06:34:46.189Z,23.85
2022-08-19T06:37:12.989Z,23.91
2022-08-19T06:39:42.611Z,23.96
2022-08-19T06:42:12.541Z,23.99
2022-08-19T06:44:42.888Z,24.00
2022-08-19T06:47:23.744Z,23.99
2022-08-19T06:50:05.215Z,24.05
2022-08-19T06:52:34.921Z,24.11
2022-08-19T06:55:06.104Z,24.18
2022-08-19T06:57:33.845Z,24.22
2022-08-19T07:00:01.228Z,24.29
2022-08-19T07:02:28.343Z,24.35
2022-08-19T07:04:55.322Z,24.43
2022-08-19T07:07:23.462Z,24.49
2022-08-19T07:09:59.035Z,24.56
2022-08-19T07:12:38.072Z,24.69
2022-08-19T07:15:09.819Z,24.80
2022-08-19T07:17:39.090Z,24.89
2022-08-19T07:20:09.728Z,24.91
2022-08-19T07:22:38.621Z,24.96
2022-08-19T07:25:08.089Z,25.00
2022-08-19T07:27:35.526Z,25.04
2022-08-19T07:30:02.302Z,25.10
2022-08-19T07:32:29.147Z,25.16
2022-08-19T07:34:56.912Z,25.23
2022-08-19T07:37:32.383Z,25.29
2022-08-19T07:40:01.031Z,25.39
2022-08-19T07:42:29.433Z,25.48
2022-08-19T07:44:56.419Z,25.60
2022-08-19T07:47:58.506Z,25.74
2022-08-19T07:50:12.880Z,25.93
2022-08-19T07:52:40.689Z,26.03
2022-08-19T07:55:39.851Z,26.16
2022-08-19T07:57:56.498Z,26.33
2022-08-19T08:00:24.421Z,26.44
2022-08-19T08:02:51.887Z,26.60
2022-08-19T08:05:43.711Z,26.75
2022-08-19T08:08:30.602Z,26.86
2022-08-19T08:10:57.676Z,26.98
2022-08-19T08:13:25.269Z,27.03
2022-08-19T08:15:53.455Z,27.06
2022-08-19T08:18:22.977Z,27.06
2022-08-19T08:20:55.951Z,27.07
2022-08-19T08:23:31.029Z,27.12
2022-08-19T08:25:59.125Z,27.20
2022-08-19T08:28:29.497Z,27.33
2022-08-19T08:30:58.155Z,27.43
2022-08-19T08:33:32.811Z,27.57
2022-08-19T08:36:01.756Z,27.67
2022-08-19T08:38:38.805Z,27.80
2022-08-19T08:41:21.639Z,27.88
2022-08-19T08:43:53.156Z,27.95
2022-08-19T08:46:47.081Z,28.40
2022-08-19T08:49:38.454Z,28.93
2022-08-19T08:52:14.768Z,29.31
2022-08-19T08:54:48.962Z,29.54
2022-08-19T08:57:40.782Z,29.68
2022-08-19T09:00:17.941Z,29.73
2022-08-19T09:02:45.133Z,29.77
2022-08-19T09:05:22.623Z,29.81
2022-08-19T09:08:04.956Z,29.83
2022-08-19T09:10:44.976Z,29.87
2022-08-19T09:13:25.377Z,29.82
2022-08-19T09:16:04.374Z,29.72
2022-08-19T09:18:56.637Z,29.68
2022-08-19T09:21:30.304Z,29.53
2022-08-19T09:24:00.213Z,29.45
2022-08-19T09:26:48.271Z,29.44
2022-08-19T09:29:15.139Z,29.57
2022-08-19T09:31:41.945Z,29.69
2022-08-19T09:34:21.272Z,29.70
2022-08-19T09:36:54.640Z,29.69
2022-08-19T09:39:22.044Z,29.68
2022-08-19T09:41:49.403Z,29.72
2022-08-19T09:44:18.265Z,29.81
2022-08-19T09:46:48.459Z,29.81
2022-08-19T09:49:18.315Z,29.72
2022-08-19T09:51:51.254Z,29.69
2022-08-19T09:54:23.387Z,29.81
2022-08-19T09:56:52.774Z,29.91
2022-08-19T09:59:19.527Z,29.99
2022-08-19T10:01:46.269Z,30.20
2022-08-19T10:04:14.750Z,30.49
2022-08-19T10:06:48.712Z,30.76
2022-08-19T10:09:26.155Z,30.89
2022-08-19T10:12:02.914Z,31.20
2022-08-19T10:14:32.772Z,31.73
2022-08-19T10:17:17.410Z,32.66
2022-08-19T10:19:55.224Z,33.55
2022-08-19T10:22:25.479Z,34.53
2022-08-19T10:24:53.492Z,35.46
2022-08-19T10:27:20.218Z,36.36
2022-08-19T10:29:46.900Z,37.13
2022-08-19T10:32:13.561Z,37.76
2022-08-19T10:34:48.045Z,38.12
2022-08-19T10:37:23.716Z,38.30
2022-08-19T10:39:56.126Z,38.18
2022-08-19T10:42:23.089Z,37.97
2022-08-19T10:44:49.775Z,38.13
2022-08-19T10:47:24.711Z,38.65
2022-08-19T10:50:12.855Z,39.01
2022-08-19T10:52:49.995Z,39.15
2022-08-19T10:55:39.272Z,38.99
2022-08-19T10:58:11.885Z,39.38
2022-08-19T11:00:38.794Z,40.13
2022-08-19T11:03:05.571Z,40.80
2022-08-19T11:05:39.812Z,40.91
2022-08-19T11:08:23.758Z,40.41
2022-08-19T11:10:54.687Z,39.65
2022-08-19T11:13:22.281Z,39.06
2022-08-19T11:15:48.988Z,38.60
2022-08-19T11:18:15.653Z,38.17
2022-08-19T11:20:42.445Z,37.88
2022-08-19T11:23:09.556Z,37.50
2022-08-19T11:25:39.767Z,37.03
2022-08-19T11:28:07.122Z,36.63
2022-08-19T11:30:35.144Z,36.35
2022-08-19T11:33:02.082Z,36.09
2022-08-19T11:35:29.167Z,35.91
2022-08-19T11:37:57.119Z,35.83
2022-08-19T11:40:23.833Z,35.71
2022-08-19T11:42:56.627Z,35.69
2022-08-19T11:45:27.895Z,35.85
2022-08-19T11:47:55.537Z,36.54
2022-08-19T11:50:24.399Z,36.95
2022-08-19T11:52:52.444Z,37.30
2022-08-19T11:55:20.885Z,37.20
2022-08-19T11:57:47.924Z,36.94
2022-08-19T12:00:15.203Z,36.56
2022-08-19T12:02:41.927Z,36.23
2022-08-19T12:05:12.664Z,35.91
2022-08-19T12:07:42.513Z,35.40
2022-08-19T12:10:10.662Z,34.96
2022-08-19T12:12:43.394Z,34.59
2022-08-19T12:15:12.758Z,34.31
2022-08-19T12:17:39.807Z,34.16
2022-08-19T12:20:08.685Z,33.99
2022-08-19T12:22:36.088Z,33.77
2022-08-19T12:25:03.824Z,33.67
2022-08-19T12:27:39.890Z,33.79
2022-08-19T12:30:11.528Z,33.95
2022-08-19T12:32:39.122Z,34.05
2022-08-19T12:35:08.244Z,34.17
2022-08-19T12:37:35.084Z,34.10
2022-08-19T12:40:02.180Z,33.99
2022-08-19T12:42:29.600Z,33.88
2022-08-19T12:44:56.298Z,33.73
2022-08-19T12:47:23.217Z,33.69
2022-08-19T12:50:11.461Z,33.78
2022-08-19T12:52:44.336Z,34.24
2022-08-19T12:55:12.561Z,34.77
2022-08-19T12:57:40.057Z,35.35
2022-08-19T13:00:14.580Z,35.97
2022-08-19T13:02:47.627Z,36.48
2022-08-19T13:05:17.999Z,37.11
2022-08-19T13:07:47.688Z,37.50
2022-08-19T13:10:18.065Z,37.77
2022-08-19T13:12:51.679Z,37.86
2022-08-19T13:15:24.169Z,37.63
2022-08-19T13:17:54.056Z,37.15
2022-08-19T13:20:21.944Z,36.69
2022-08-19T13:22:49.438Z,36.45
2022-08-19T13:25:18.789Z,36.48
2022-08-19T13:27:45.524Z,36.76
2022-08-19T13:30:33.070Z,36.89
2022-08-19T13:33:12.207Z,37.09
2022-08-19T13:35:46.197Z,37.38
2022-08-19T13:38:13.808Z,37.72
2022-08-19T13:40:41.700Z,38.19
2022-08-19T13:43:17.473Z,38.23
2022-08-19T13:45:51.798Z,38.15
2022-08-19T13:48:19.845Z,37.85
2022-08-19T13:50:49.132Z,37.20
2022-08-19T13:53:16.972Z,36.49
2022-08-19T13:55:45.281Z,35.84
2022-08-19T13:58:13.276Z,35.42
2022-08-19T14:00:44.411Z,35.16
2022-08-19T14:03:12.531Z,34.98
2022-08-19T14:05:39.576Z,34.90
2022-08-19T14:08:06.476Z,34.92
2022-08-19T14:10:34.327Z,35.26
2022-08-19T14:13:03.570Z,35.69
2022-08-19T14:15:31.448Z,36.06
2022-08-19T14:17:58.267Z,36.21
2022-08-19T14:20:26.009Z,36.33
2022-08-19T14:22:53.923Z,36.43
2022-08-19T14:25:24.090Z,36.53
2022-08-19T14:27:51.252Z,36.70
2022-08-19T14:30:22.274Z,36.71
2022-08-19T14:32:49.040Z,36.78
2022-08-19T14:35:16.774Z,36.91
2022-08-19T14:37:46.203Z,36.97
2022-08-19T14:40:26.928Z,36.93
2022-08-19T14:43:02.362Z,36.90
2022-08-19T14:45:30.085Z,36.71
2022-08-19T14:47:57.032Z,36.33
2022-08-19T14:50:24.127Z,35.91
2022-08-19T14:52:50.974Z,35.63
2022-08-19T14:55:18.747Z,35.36
2022-08-19T14:57:46.318Z,35.06
2022-08-19T15:00:14.411Z,34.75
2022-08-19T15:02:45.321Z,34.51
2022-08-19T15:05:12.673Z,34.26
2022-08-19T15:07:40.644Z,34.01
2022-08-19T15:10:08.657Z,33.85
2022-08-19T15:12:35.822Z,33.71
2022-08-19T15:15:03.819Z,33.60
2022-08-19T15:17:43.748Z,33.42
2022-08-19T15:20:17.588Z,33.22
2022-08-19T15:22:44.382Z,33.07
2022-08-19T15:25:14.649Z,32.92
2022-08-19T15:27:41.654Z,32.78
2022-08-19T15:30:09.776Z,32.60
2022-08-19T15:32:37.613Z,32.46
2022-08-19T15:35:06.902Z,32.32
2022-08-19T15:37:37.039Z,32.18
2022-08-19T15:40:06.250Z,32.09
2022-08-19T15:42:33.491Z,32.01
2022-08-19T15:45:00.630Z,31.89
2022-08-19T15:47:34.922Z,31.74
2022-08-19T15:50:11.466Z,31.64
2022-08-19T15:52:51.182Z,31.54
2022-08-19T15:55:33.215Z,31.45
2022-08-19T15:58:31.853Z,31.33
2022-08-19T16:01:20.505Z,31.24
2022-08-19T16:04:11.333Z,31.13
2022-08-19T16:06:45.896Z,31.01
2022-08-19T16:09:13.258Z,30.88
2022-08-19T16:11:45.437Z,30.77
2022-08-19T16:14:13.150Z,30.68
2022-08-19T16:16:39.797Z,30.60
2022-08-19T16:19:10.606Z,30.53
2022-08-19T16:21:41.834Z,30.43
2022-08-19T16:24:10.648Z,30.34
2022-08-19T16:26:37.840Z,30.22
2022-08-19T16:29:09.031Z,30.13
2022-08-19T16:31:39.372Z,30.06
2022-08-19T16:34:06.352Z,30.00
2022-08-19T16:36:33.600Z,29.94
2022-08-19T16:39:01.370Z,29.89
2022-08-19T16:41:29.304Z,29.83
2022-08-19T16:43:56.618Z,29.75
2022-08-19T16:46:25.305Z,29.67
2022-08-19T16:48:54.327Z,29.59
2022-08-19T16:51:22.956Z,29.51
2022-08-19T16:53:52.062Z,29.46
2022-08-19T16:56:19.763Z,29.42
2022-08-19T16:58:46.483Z,29.36
2022-08-19T17:01:13.854Z,29.31
2022-08-19T17:03:40.659Z,29.24
2022-08-19T17:06:17.826Z,29.15
2022-08-19T17:08:51.344Z,29.08
2022-08-19T17:11:19.780Z,29.04
2022-08-19T17:13:47.799Z,29.03
2022-08-19T17:16:21.873Z,29.02
2022-08-19T17:18:52.378Z,29.03
2022-08-19T17:21:20.752Z,29.04
2022-08-19T17:23:47.497Z,29.06
2022-08-19T17:26:18.065Z,29.05
2022-08-19T17:28:48.096Z,28.96
2022-08-19T17:31:15.297Z,28.85
2022-08-19T17:33:42.041Z,28.64
2022-08-19T17:36:09.181Z,28.22
2022-08-19T17:38:37.729Z,27.72
2022-08-19T17:41:05.876Z,27.19
2022-08-19T17:43:41.303Z,26.56
2022-08-19T17:46:11.012Z,26.02
2022-08-19T17:48:39.099Z,25.50
2022-08-19T17:51:15.378Z,25.16
2022-08-19T17:53:42.388Z,24.78
2022-08-19T17:56:10.689Z,24.32
2022-08-19T17:58:41.547Z,23.72
2022-08-19T18:01:13.685Z,23.22
2022-08-19T18:03:42.048Z,22.82
2022-08-19T18:06:09.459Z,22.36
2022-08-19T18:08:39.044Z,22.02
2022-08-19T18:11:07.940Z,21.88
2022-08-19T18:13:35.988Z,21.81
2022-08-19T18:16:04.277Z,21.77
2022-08-19T18:18:31.920Z,21.70
2022-08-19T18:20:58.599Z,21.64
2022-08-19T18:23:45.816Z,21.67
2022-08-19T18:26:12.335Z,21.62
2022-08-19T18:28:49.440Z,21.60
2022-08-19T18:31:17.710Z,21.60
2022-08-19T18:33:48.205Z,21.58
2022-08-19T18:36:14.902Z,21.56
2022-08-19T18:39:03.907Z,21.61
2022-08-19T18:41:52.451Z,21.54
2022-08-19T18:44:38.814Z,21.40
2022-08-19T18:47:24.198Z,21.36
2022-08-19T18:49:51.215Z,21.30
2022-08-19T18:52:19.316Z,21.27
2022-08-19T18:54:48.373Z,21.30
2022-08-19T18:57:15.644Z,21.34
2022-08-19T18:59:43.782Z,21.36
2022-08-19T19:02:13.694Z,21.34
2022-08-19T19:04:40.575Z,21.30
2022-08-19T19:07:09.183Z,21.29
2022-08-19T19:09:37.193Z,21.29
2022-08-19T19:12:05.741Z,21.28
2022-08-19T19:14:50.635Z,21.30
2022-08-19T19:17:17.655Z,21.32
2022-08-19T19:19:44.581Z,21.32
2022-08-19T19:22:14.917Z,21.36
2022-08-19T19:24:44.816Z,21.39
2022-08-19T19:27:14.017Z,21.41
2022-08-19T19:29:41.733Z,21.40
2022-08-19T19:32:14.209Z,21.42
2022-08-19T19:34:40.955Z,21.39
2022-08-19T19:37:08.381Z,21.42
2022-08-19T19:39:46.592Z,21.45
2022-08-19T19:42:20.707Z,21.48
2022-08-19T19:44:52.430Z,21.50
2022-08-19T19:47:20.009Z,21.50
2022-08-19T19:50:13.152Z,21.50
2022-08-19T19:52:39.952Z,21.50
2022-08-19T19:55:07.154Z,21.50
2022-08-19T19:57:33.821Z,21.51
2022-08-19T20:00:00.611Z,21.53
2022-08-19T20:02:28.463Z,21.52
2022-08-19T20:04:59.766Z,21.53
2022-08-19T20:07:47.073Z,21.51
2022-08-19T20:10:14.320Z,21.41
2022-08-19T20:12:41.064Z,21.39
2022-08-19T20:15:08.737Z,21.36
2022-08-19T20:17:42.479Z,21.39
2022-08-19T20:20:14.950Z,21.31
2022-08-19T20:22:43.233Z,21.36
2022-08-19T20:25:15.287Z,21.43
2022-08-19T20:27:42.616Z,21.42
2022-08-19T20:30:19.228Z,21.43
2022-08-19T20:32:47.265Z,21.47
2022-08-19T20:35:15.828Z,21.41
2022-08-19T20:37:43.045Z,21.45
2022-08-19T20:40:11.096Z,21.46
2022-08-19T20:42:40.713Z,21.51
2022-08-19T20:45:30.960Z,21.53
2022-08-19T20:47:56.758Z,21.54
2022-08-19T20:50:23.470Z,21.57
2022-08-19T20:52:53.509Z,21.61
2022-08-19T20:55:22.056Z,21.62
2022-08-19T20:57:49.084Z,21.60
2022-08-19T21:00:16.121Z,21.58
2022-08-19T21:02:42.784Z,21.56
2022-08-19T21:05:09.546Z,21.60
2022-08-19T21:07:39.244Z,21.69
2022-08-19T21:10:07.662Z,21.78
2022-08-19T21:12:34.385Z,21.83
2022-08-19T21:15:01.308Z,21.89
2022-08-19T21:17:28.000Z,21.82
2022-08-19T21:19:54.881Z,21.65
2022-08-19T21:22:21.549Z,21.62
2022-08-19T21:24:48.437Z,21.55
2022-08-19T21:27:15.143Z,21.51
2022-08-19T21:29:42.310Z,21.53
2022-08-19T21:32:14.381Z,21.53
2022-08-19T21:34:42.734Z,21.52
2022-08-19T21:37:25.153Z,21.53
2022-08-19T21:39:54.704Z,21.53
2022-08-19T21:42:23.361Z,21.49
2022-08-19T21:44:50.424Z,21.39
2022-08-19T21:47:17.741Z,21.25
2022-08-19T21:49:44.420Z,21.05
2022-08-19T21:52:11.070Z,20.89
2022-08-19T21:54:38.714Z,20.75
2022-08-19T21:57:10.880Z,20.65
2022-08-19T21:59:44.046Z,20.62
2022-08-19T22:02:20.785Z,20.59
2022-08-19T22:04:52.183Z,20.52
2022-08-19T22:07:20.875Z,20.51
2022-08-19T22:09:49.364Z,20.53
2022-08-19T22:12:28.596Z,20.57
2022-08-19T22:14:56.100Z,20.62
2022-08-19T22:17:24.642Z,20.65
2022-08-19T22:19:52.580Z,20.70
2022-08-19T22:22:32.073Z,20.77
2022-08-19T22:25:06.521Z,20.86
2022-08-19T22:27:33.522Z,20.88
2022-08-19T22:30:00.184Z,20.86
2022-08-19T22:32:28.554Z,20.87
2022-08-19T22:34:58.901Z,20.92
2022-08-19T22:37:27.394Z,20.98
2022-08-19T22:39:54.087Z,21.03
2022-08-19T22:42:22.137Z,21.11
2022-08-19T22:44:49.333Z,21.19
2022-08-19T22:47:16.596Z,21.28
2022-08-19T22:49:44.209Z,21.36
2022-08-19T22:52:20.608Z,21.41
2022-08-19T22:54:52.034Z,21.44
2022-08-19T22:57:20.354Z,21.48
2022-08-19T22:59:49.099Z,21.51
2022-08-19T23:02:28.049Z,21.56
2022-08-19T23:04:55.005Z,21.59
2022-08-19T23:07:23.864Z,21.62
2022-08-19T23:09:50.797Z,21.64
2022-08-19T23:12:30.938Z,21.69
2022-08-19T23:15:12.044Z,21.63
2022-08-19T23:17:40.702Z,21.58
2022-08-19T23:20:10.415Z,21.56
2022-08-19T23:22:39.472Z,21.54
2022-08-19T23:25:08.701Z,21.52
2022-08-19T23:27:53.850Z,21.53
2022-08-19T23:30:27.456Z,21.52
2022-08-19T23:33:01.001Z,21.51
2022-08-19T23:35:33.801Z,21.49
2022-08-19T23:38:01.176Z,21.39
2022-08-19T23:40:30.089Z,21.35
2022-08-19T23:42:57.525Z,21.32
2022-08-19T23:45:27.177Z,21.23
2022-08-19T23:47:53.955Z,21.14
2022-08-19T23:50:22.827Z,21.09
2022-08-19T23:52:53.568Z,21.11
2022-08-19T23:55:24.828Z,21.13
2022-08-19T23:57:52.377Z,21.18
